createdAt,value
2018-05-03T00:01:12.114Z,58.04
2018-05-03T00:03:40.377Z,57.95
2018-05-03T00:06:08.608Z,58.25
2018-05-03T00:08:36.841Z,58.56
2018-05-03T00:11:05.094Z,58.71
2018-05-03T00:13:33.322Z,58.58
2018-05-03T00:16:01.549Z,58.54
2018-05-03T00:18:29.798Z,58.32
2018-05-03T00:20:58.041Z,58.61
2018-05-03T00:23:27.033Z,58.43
2018-05-03T00:25:56.030Z,58.48
2018-05-03T00:28:24.273Z,58.86
2018-05-03T00:30:52.506Z,58.92
2018-05-03T00:33:20.745Z,59.14
2018-05-03T00:35:49.743Z,59.46
2018-05-03T00:38:18.754Z,59.31
2018-05-03T00:40:47.021Z,59.48
2018-05-03T00:43:15.274Z,59.57
2018-05-03T00:45:43.502Z,59.69
2018-05-03T00:48:11.746Z,59.36
2018-05-03T00:50:40.757Z,59.08
2018-05-03T00:53:08.993Z,59.19
2018-05-03T00:55:38.413Z,58.99
2018-05-03T00:58:07.465Z,58.96
2018-05-03T01:00:35.700Z,59.09
2018-05-03T01:03:03.941Z,59.10
2018-05-03T01:05:32.974Z,58.92
2018-05-03T01:08:01.214Z,59.00
2018-05-03T01:10:30.321Z,59.21
2018-05-03T01:12:59.335Z,59.47
2018-05-03T01:15:27.585Z,59.61
2018-05-03T01:17:56.604Z,59.10
2018-05-03T01:20:24.841Z,59.24
2018-05-03T01:22:53.841Z,58.99
2018-05-03T01:25:22.857Z,59.33
2018-05-03T01:27:51.125Z,59.41
2018-05-03T01:30:19.371Z,59.27
2018-05-03T01:32:48.365Z,59.57
2018-05-03T01:35:34.254Z,59.26
2018-05-03T01:38:02.484Z,59.25
2018-05-03T01:40:30.717Z,58.95
2018-05-03T01:43:00.027Z,59.00
2018-05-03T01:45:29.021Z,59.27
2018-05-03T01:47:58.022Z,59.42
2018-05-03T01:50:26.278Z,59.42
2018-05-03T01:52:54.573Z,58.99
2018-05-03T01:55:22.807Z,59.25
2018-05-03T01:57:51.809Z,59.32
2018-05-03T02:00:20.217Z,59.56
2018-05-03T02:02:48.449Z,59.35
2018-05-03T02:05:16.682Z,59.82
2018-05-03T02:07:45.246Z,60.06
2018-05-03T02:10:14.254Z,59.63
2018-05-03T02:12:42.502Z,59.72
2018-05-03T02:15:11.526Z,59.68
2018-05-03T02:17:39.754Z,59.40
2018-05-03T02:20:08.004Z,59.63
2018-05-03T02:22:36.229Z,59.46
2018-05-03T02:25:05.241Z,59.35
2018-05-03T02:27:33.472Z,59.42
2018-05-03T02:30:01.712Z,59.13
2018-05-03T02:32:29.962Z,59.49
2018-05-03T02:34:58.209Z,59.84
2018-05-03T02:37:26.452Z,59.80
2018-05-03T02:39:54.681Z,59.55
2018-05-03T02:42:23.690Z,59.39
2018-05-03T02:44:51.954Z,59.71
2018-05-03T02:47:20.957Z,59.52
2018-05-03T02:49:49.201Z,59.74
2018-05-03T02:52:17.436Z,59.70
2018-05-03T02:54:45.661Z,59.53
2018-05-03T02:57:32.330Z,59.49
2018-05-03T03:00:24.106Z,59.85
2018-05-03T03:03:16.047Z,59.69
2018-05-03T03:06:07.618Z,59.64
2018-05-03T03:16:04.614Z,59.41
2018-05-03T03:18:56.077Z,59.36
2018-05-03T03:21:47.905Z,59.19
2018-05-03T03:24:38.961Z,59.53
2018-05-03T03:27:30.662Z,59.41
2018-05-03T03:30:16.761Z,59.56
2018-05-03T03:33:02.848Z,59.60
2018-05-03T03:36:06.782Z,59.68
2018-05-03T03:38:52.973Z,58.67
2018-05-03T03:41:37.103Z,58.63
2018-05-03T03:44:23.211Z,58.74
2018-05-03T03:46:51.450Z,58.90
2018-05-03T03:49:20.481Z,58.75
2018-05-03T03:51:48.713Z,58.65
2018-05-03T03:54:17.714Z,58.49
2018-05-03T03:56:46.725Z,58.79
2018-05-03T03:59:14.962Z,58.55
2018-05-03T04:01:43.206Z,58.23
2018-05-03T04:04:11.530Z,58.15
2018-05-03T04:06:40.551Z,58.74
2018-05-03T04:09:08.785Z,58.44
2018-05-03T04:11:37.027Z,59.01
2018-05-03T04:14:05.378Z,66.24
2018-05-03T04:16:33.625Z,70.05
2018-05-03T04:22:29.734Z,67.05
2018-05-03T04:25:15.785Z,66.35
2018-05-03T04:27:44.045Z,66.61
2018-05-03T04:30:13.066Z,64.75
2018-05-03T04:32:41.305Z,63.76
2018-05-03T04:35:11.342Z,62.31
2018-05-03T04:37:39.570Z,61.61
2018-05-03T04:40:07.830Z,61.52
2018-05-03T04:42:36.057Z,60.91
2018-05-03T04:45:05.074Z,59.79
2018-05-03T04:47:33.309Z,60.06
2018-05-03T04:50:02.331Z,60.36
2018-05-03T04:52:30.589Z,59.40
2018-05-03T04:54:59.690Z,59.85
2018-05-03T04:57:28.691Z,59.44
2018-05-03T04:59:56.946Z,59.02
2018-05-03T05:02:25.975Z,59.17
2018-05-03T05:04:54.201Z,59.56
2018-05-03T05:07:22.431Z,59.00
2018-05-03T05:09:50.675Z,59.23
2018-05-03T05:12:19.674Z,58.92
2018-05-03T05:14:47.919Z,57.90
2018-05-03T05:17:16.152Z,57.97
2018-05-03T05:19:44.506Z,58.05
2018-05-03T05:22:13.302Z,58.79
2018-05-03T05:24:41.533Z,58.73
2018-05-03T05:27:09.767Z,58.78
2018-05-03T05:29:38.005Z,58.50
2018-05-03T05:32:07.028Z,58.11
2018-05-03T05:34:35.254Z,58.66
2018-05-03T05:37:03.500Z,58.42
2018-05-03T05:39:31.749Z,57.94
2018-05-03T05:41:59.989Z,58.01
2018-05-03T05:44:28.989Z,58.24
2018-05-03T05:46:58.005Z,57.60
2018-05-03T05:49:26.254Z,58.35
2018-05-03T05:51:55.261Z,57.85
2018-05-03T05:54:24.260Z,57.32
2018-05-03T05:56:53.276Z,57.50
2018-05-03T05:59:21.513Z,57.29
2018-05-03T06:01:50.513Z,57.50
2018-05-03T06:04:19.581Z,58.10
2018-05-03T06:06:47.765Z,57.84
2018-05-03T06:09:16.065Z,57.42
2018-05-03T06:11:45.083Z,56.99
2018-05-03T06:14:13.310Z,56.57
2018-05-03T06:16:41.602Z,56.14
2018-05-03T06:19:10.629Z,56.58
2018-05-03T06:21:38.870Z,56.52
2018-05-03T06:24:07.105Z,56.12
2018-05-03T06:26:35.338Z,55.88
2018-05-03T06:29:03.591Z,56.00
2018-05-03T06:31:32.601Z,56.32
2018-05-03T06:34:01.179Z,56.46
2018-05-03T06:36:30.206Z,56.95
2018-05-03T06:38:58.547Z,56.35
2018-05-03T06:41:26.696Z,56.73
2018-05-03T06:43:54.940Z,56.83
2018-05-03T06:46:23.186Z,55.80
2018-05-03T06:48:51.445Z,55.94
2018-05-03T06:51:20.441Z,55.90
2018-05-03T06:53:49.567Z,55.71
2018-05-03T06:56:17.798Z,56.20
2018-05-03T06:58:47.117Z,56.52
2018-05-03T07:01:16.135Z,56.36
2018-05-03T07:03:44.365Z,55.59
2018-05-03T07:06:12.659Z,55.68
2018-05-03T07:08:41.675Z,54.26
2018-05-03T07:11:09.914Z,54.13
2018-05-03T07:13:38.150Z,54.50
2018-05-03T07:16:06.389Z,53.60
2018-05-03T07:18:34.665Z,53.47
2018-05-03T07:21:02.912Z,52.66
2018-05-03T07:23:31.135Z,51.45
2018-05-03T07:25:59.381Z,51.67
2018-05-03T07:28:28.378Z,51.87
2018-05-03T07:30:56.630Z,51.95
2018-05-03T07:33:24.870Z,50.86
2018-05-03T07:35:53.194Z,49.75
2018-05-03T07:38:22.126Z,48.44
2018-05-03T07:40:50.364Z,48.55
2018-05-03T07:43:19.361Z,49.61
2018-05-03T07:45:48.658Z,50.08
2018-05-03T07:48:17.684Z,49.84
2018-05-03T07:50:45.909Z,51.15
2018-05-03T07:53:14.941Z,50.32
2018-05-03T07:55:43.179Z,49.97
2018-05-03T07:58:11.474Z,50.82
2018-05-03T08:00:39.653Z,50.21
2018-05-03T08:03:07.910Z,50.18
2018-05-03T08:05:36.913Z,49.56
2018-05-03T08:08:05.925Z,48.49
2018-05-03T08:10:34.161Z,49.70
2018-05-03T08:13:02.406Z,48.32
2018-05-03T08:15:30.746Z,48.28
2018-05-03T08:17:59.762Z,48.26
2018-05-03T08:20:28.004Z,48.71
2018-05-03T08:22:57.235Z,47.44
2018-05-03T08:25:25.450Z,47.24
2018-05-03T08:27:53.686Z,47.37
2018-05-03T08:30:21.932Z,47.01
2018-05-03T08:32:50.927Z,47.25
2018-05-03T08:35:19.955Z,46.26
2018-05-03T08:37:48.194Z,45.97
2018-05-03T08:40:17.193Z,45.52
2018-05-03T08:42:45.445Z,45.76
2018-05-03T08:45:13.677Z,47.00
2018-05-03T08:47:41.926Z,45.20
2018-05-03T08:50:10.365Z,44.36
2018-05-03T08:52:38.598Z,44.82
2018-05-03T08:55:06.830Z,43.20
2018-05-03T08:57:36.146Z,42.19
2018-05-03T09:00:05.141Z,42.24
2018-05-03T09:02:33.374Z,41.61
2018-05-03T09:05:01.627Z,42.14
2018-05-03T09:07:29.873Z,42.41
2018-05-03T09:09:58.858Z,41.80
2018-05-03T09:15:02.342Z,41.63
2018-05-03T09:17:30.950Z,42.69
2018-05-03T09:19:59.953Z,41.67
2018-05-03T09:22:28.283Z,42.98
2018-05-03T09:24:56.473Z,44.42
2018-05-03T09:27:24.714Z,43.56
2018-05-03T09:29:53.051Z,44.28
2018-05-03T09:32:22.050Z,44.00
2018-05-03T09:34:50.302Z,43.54
2018-05-03T09:37:19.309Z,43.01
2018-05-03T09:39:48.318Z,44.52
2018-05-03T09:42:16.553Z,44.98
2018-05-03T09:44:44.836Z,45.55
2018-05-03T09:47:13.035Z,45.86
2018-05-03T09:49:41.285Z,45.94
2018-05-03T09:52:11.026Z,46.78
2018-05-03T09:54:39.274Z,46.95
2018-05-03T09:57:07.519Z,47.63
2018-05-03T09:59:35.753Z,47.46
2018-05-03T10:02:04.326Z,46.66
2018-05-03T10:04:33.336Z,47.67
2018-05-03T10:07:01.582Z,47.28
2018-05-03T10:09:30.077Z,47.10
2018-05-03T10:11:59.077Z,47.98
2018-05-03T10:14:27.374Z,46.06
2018-05-03T10:16:55.622Z,45.48
2018-05-03T10:19:24.626Z,44.96
2018-05-03T10:21:52.870Z,43.80
2018-05-03T10:24:21.166Z,41.63
2018-05-03T10:26:49.401Z,42.33
2018-05-03T10:29:17.649Z,42.12
2018-05-03T10:31:45.904Z,42.86
2018-05-03T10:34:14.133Z,41.64
2018-05-03T10:36:42.421Z,42.64
2018-05-03T10:39:10.653Z,42.74
2018-05-03T10:41:38.890Z,41.62
2018-05-03T10:44:07.915Z,41.09
2018-05-03T10:46:36.145Z,40.50
2018-05-03T10:49:04.473Z,40.73
2018-05-03T10:51:32.632Z,40.65
2018-05-03T10:54:00.874Z,38.74
2018-05-03T10:56:29.902Z,38.70
2018-05-03T10:58:58.899Z,39.31
2018-05-03T11:01:27.145Z,39.84
2018-05-03T11:03:56.170Z,40.65
2018-05-03T11:06:24.406Z,41.49
2018-05-03T11:08:53.405Z,42.24
2018-05-03T11:11:22.413Z,41.84
2018-05-03T11:13:50.669Z,43.04
2018-05-03T11:16:19.685Z,43.36
2018-05-03T11:18:47.927Z,43.61
2018-05-03T11:21:16.192Z,44.17
2018-05-03T11:23:44.417Z,43.41
2018-05-03T11:26:12.644Z,42.17
2018-05-03T11:28:40.890Z,41.78
2018-05-03T11:31:09.125Z,41.19
2018-05-03T11:33:38.142Z,40.74
2018-05-03T11:36:06.380Z,41.60
2018-05-03T11:38:35.378Z,41.93
2018-05-03T11:41:04.493Z,42.12
2018-05-03T11:43:34.513Z,42.44
2018-05-03T11:46:02.754Z,43.21
2018-05-03T11:48:31.749Z,42.47
2018-05-03T11:51:00.041Z,43.32
2018-05-03T11:53:29.045Z,42.74
2018-05-03T11:55:57.314Z,42.55
2018-05-03T11:58:26.321Z,41.88
2018-05-03T12:00:54.576Z,42.15
2018-05-03T12:03:23.568Z,43.17
2018-05-03T12:05:52.590Z,42.76
2018-05-03T12:08:20.844Z,42.69
2018-05-03T12:10:49.053Z,43.37
2018-05-03T12:13:17.297Z,43.18
2018-05-03T12:15:45.547Z,42.48
2018-05-03T12:18:13.794Z,42.94
2018-05-03T12:20:43.046Z,43.10
2018-05-03T12:23:12.052Z,42.52
2018-05-03T12:25:40.285Z,43.13
2018-05-03T12:28:08.541Z,43.77
2018-05-03T12:30:36.866Z,43.66
2018-05-03T12:33:05.873Z,44.02
2018-05-03T12:35:34.132Z,44.69
2018-05-03T12:38:03.148Z,45.24
2018-05-03T12:40:31.403Z,45.69
2018-05-03T12:43:00.414Z,45.55
2018-05-03T12:45:28.653Z,46.25
2018-05-03T12:47:56.896Z,46.54
2018-05-03T12:50:25.144Z,45.46
2018-05-03T12:52:53.385Z,45.98
2018-05-03T12:55:22.389Z,46.56
2018-05-03T12:57:51.405Z,45.95
2018-05-03T13:00:19.654Z,46.33
2018-05-03T13:02:48.666Z,46.39
2018-05-03T13:05:16.905Z,46.97
2018-05-03T13:07:45.135Z,47.41
2018-05-03T13:10:13.482Z,47.48
2018-05-03T13:12:42.501Z,47.95
2018-05-03T13:15:10.742Z,48.09
2018-05-03T13:17:39.764Z,47.00
2018-05-03T13:20:07.995Z,47.44
2018-05-03T13:22:36.242Z,47.48
2018-05-03T13:25:04.470Z,48.10
2018-05-03T13:27:33.483Z,48.67
2018-05-03T13:30:01.723Z,49.34
2018-05-03T13:32:30.731Z,49.42
2018-05-03T13:34:59.742Z,48.60
2018-05-03T13:37:27.969Z,48.21
2018-05-03T13:39:56.217Z,48.44
2018-05-03T13:42:24.461Z,48.36
2018-05-03T13:44:52.710Z,48.49
2018-05-03T13:47:21.731Z,48.30
2018-05-03T13:49:50.017Z,48.22
2018-05-03T13:52:18.267Z,47.62
2018-05-03T13:54:47.291Z,48.33
2018-05-03T13:57:15.529Z,48.51
2018-05-03T13:59:44.546Z,48.13
2018-05-03T14:02:12.777Z,47.67
2018-05-03T14:04:41.010Z,47.41
2018-05-03T14:07:09.293Z,47.06
2018-05-03T14:09:38.657Z,47.61
2018-05-03T14:12:07.654Z,47.31
2018-05-03T14:14:36.658Z,47.64
2018-05-03T14:17:04.909Z,47.85
2018-05-03T14:19:33.910Z,48.31
2018-05-03T14:22:03.013Z,47.81
2018-05-03T14:24:32.057Z,48.86
2018-05-03T14:27:00.310Z,49.23
2018-05-03T14:29:28.551Z,48.89
2018-05-03T14:31:57.565Z,48.96
2018-05-03T14:34:25.806Z,48.74
2018-05-03T14:36:54.055Z,49.18
2018-05-03T14:39:22.297Z,48.91
2018-05-03T14:41:50.574Z,49.98
2018-05-03T14:44:18.828Z,49.19
2018-05-03T14:46:47.844Z,48.97
2018-05-03T14:49:16.126Z,48.57
2018-05-03T14:51:44.401Z,48.97
2018-05-03T14:54:12.634Z,50.23
2018-05-03T14:56:41.657Z,49.85
2018-05-03T14:59:09.885Z,50.98
2018-05-03T15:01:38.141Z,51.43
2018-05-03T15:04:06.373Z,51.53
2018-05-03T15:06:34.695Z,52.43
2018-05-03T15:09:02.918Z,52.30
2018-05-03T15:11:31.975Z,52.37
2018-05-03T15:14:00.216Z,52.82
2018-05-03T15:16:28.480Z,53.69
2018-05-03T15:18:57.470Z,54.07
2018-05-03T15:21:25.714Z,53.85
2018-05-03T15:23:53.965Z,53.12
2018-05-03T15:26:22.351Z,53.90
2018-05-03T15:28:50.588Z,54.32
2018-05-03T15:31:18.826Z,54.38
2018-05-03T15:33:48.072Z,54.70
2018-05-03T15:36:16.292Z,54.74
2018-05-03T15:38:44.522Z,55.72
2018-05-03T15:41:12.778Z,55.99
2018-05-03T15:43:41.190Z,56.50
2018-05-03T15:46:09.390Z,56.74
2018-05-03T15:48:37.631Z,56.50
2018-05-03T15:51:05.881Z,56.91
2018-05-03T15:53:34.133Z,56.81
2018-05-03T15:56:03.157Z,56.82
2018-05-03T15:58:31.401Z,56.88
2018-05-03T16:01:00.417Z,57.17
2018-05-03T16:03:28.665Z,57.14
2018-05-03T16:05:57.978Z,56.68
2018-05-03T16:08:26.986Z,56.66
2018-05-03T16:10:55.226Z,56.80
2018-05-03T16:13:23.473Z,57.26
2018-05-03T16:15:51.726Z,57.49
2018-05-03T16:18:20.002Z,57.11
2018-05-03T16:20:48.233Z,57.56
2018-05-03T16:23:16.486Z,58.01
2018-05-03T16:25:45.118Z,58.39
2018-05-03T16:28:13.363Z,57.86
2018-05-03T16:30:41.602Z,57.84
2018-05-03T16:33:09.876Z,58.39
2018-05-03T16:35:38.117Z,57.95
2018-05-03T16:38:06.357Z,58.22
2018-05-03T16:40:34.610Z,58.09
2018-05-03T16:43:02.853Z,58.32
2018-05-03T16:45:31.144Z,58.41
2018-05-03T16:48:00.167Z,58.47
2018-05-03T16:50:28.389Z,58.53
2018-05-03T16:52:56.641Z,58.80
2018-05-03T16:55:25.647Z,58.66
2018-05-03T16:57:54.673Z,58.80
2018-05-03T17:00:22.926Z,59.27
2018-05-03T17:02:51.934Z,59.03
2018-05-03T17:05:20.181Z,58.89
2018-05-03T17:07:49.205Z,58.15
2018-05-03T17:10:17.454Z,58.18
2018-05-03T17:12:46.489Z,58.35
2018-05-03T17:15:14.730Z,58.47
2018-05-03T17:17:43.735Z,58.79
2018-05-03T17:20:12.331Z,57.98
2018-05-03T17:22:40.552Z,57.50
2018-05-03T17:25:08.791Z,58.06
2018-05-03T17:27:37.142Z,58.06
2018-05-03T17:30:05.399Z,57.82
2018-05-03T17:32:34.435Z,58.46
2018-05-03T17:35:02.670Z,58.52
2018-05-03T17:37:31.673Z,59.26
2018-05-03T17:39:59.929Z,58.71
2018-05-03T17:42:28.174Z,59.20
2018-05-03T17:44:56.413Z,59.12
2018-05-03T17:47:24.658Z,59.22
2018-05-03T17:49:53.665Z,59.21
2018-05-03T17:52:22.685Z,59.72
2018-05-03T17:54:50.933Z,59.31
2018-05-03T17:57:19.937Z,59.95
2018-05-03T17:59:48.205Z,59.89
2018-05-03T18:02:16.454Z,59.63
2018-05-03T18:04:45.028Z,60.13
2018-05-03T18:07:13.206Z,60.24
2018-05-03T18:09:41.443Z,60.30
2018-05-03T18:12:09.790Z,59.75
2018-05-03T18:14:38.034Z,59.95
2018-05-03T18:17:06.549Z,59.60
2018-05-03T18:19:34.934Z,58.95
2018-05-03T18:22:03.174Z,58.37
2018-05-03T18:24:32.435Z,58.82
2018-05-03T18:27:00.782Z,59.22
2018-05-03T18:29:29.026Z,59.34
2018-05-03T18:31:57.278Z,59.36
2018-05-03T18:34:25.530Z,59.76
2018-05-03T18:36:53.806Z,59.71
2018-05-03T18:39:22.034Z,59.56
2018-05-03T18:41:51.041Z,59.50
2018-05-03T18:44:20.086Z,59.84
2018-05-03T18:46:48.413Z,59.56
2018-05-03T18:49:17.461Z,59.18
2018-05-03T18:51:45.691Z,59.22
2018-05-03T18:54:14.738Z,59.41
2018-05-03T18:56:43.003Z,58.60
2018-05-03T18:59:11.247Z,58.60
2018-05-03T19:01:39.522Z,59.05
2018-05-03T19:04:07.818Z,58.61
2018-05-03T19:06:36.082Z,59.06
2018-05-03T19:09:04.321Z,58.97
2018-05-03T19:11:33.560Z,59.49
2018-05-03T19:14:01.794Z,59.90
2018-05-03T19:16:30.045Z,60.04
2018-05-03T19:18:58.289Z,60.36
2018-05-03T19:21:26.564Z,60.23
2018-05-03T19:23:54.813Z,60.23
2018-05-03T19:26:23.062Z,59.95
2018-05-03T19:28:51.310Z,59.85
2018-05-03T19:31:19.555Z,59.40
2018-05-03T19:33:47.814Z,59.51
2018-05-03T19:36:16.837Z,58.85
2018-05-03T19:38:45.082Z,58.81
2018-05-03T19:41:14.087Z,58.74
2018-05-03T19:43:42.333Z,58.13
2018-05-03T19:46:11.349Z,58.39
2018-05-03T19:48:39.597Z,58.29
2018-05-03T19:51:08.642Z,58.65
2018-05-03T19:53:36.885Z,58.56
2018-05-03T19:56:05.892Z,58.36
2018-05-03T19:58:34.151Z,59.22
2018-05-03T20:01:03.258Z,59.26
2018-05-03T20:03:32.264Z,59.66
2018-05-03T20:06:00.510Z,59.89
2018-05-03T20:08:29.530Z,59.77
2018-05-03T20:10:57.774Z,60.09
2018-05-03T20:13:26.786Z,59.54
2018-05-03T20:15:55.815Z,59.64
2018-05-03T20:18:24.061Z,59.85
2018-05-03T20:20:52.339Z,60.00
2018-05-03T20:23:20.590Z,59.52
2018-05-03T20:25:49.602Z,59.99
2018-05-03T20:28:17.877Z,60.29
2018-05-03T20:30:46.240Z,60.37
2018-05-03T20:33:15.925Z,60.39
2018-05-03T20:35:44.168Z,60.86
2018-05-03T20:38:12.413Z,60.51
2018-05-03T20:40:41.495Z,60.23
2018-05-03T20:43:10.531Z,60.56
2018-05-03T20:45:38.790Z,61.01
2018-05-03T20:48:07.030Z,61.00
2018-05-03T20:50:35.294Z,61.41
2018-05-03T20:53:03.533Z,61.60
2018-05-03T20:55:31.782Z,61.26
2018-05-03T20:58:00.033Z,61.63
2018-05-03T21:00:29.793Z,61.55
2018-05-03T21:02:58.038Z,61.03
2018-05-03T21:05:27.081Z,61.08
2018-05-03T21:07:56.079Z,61.70
2018-05-03T21:10:24.317Z,61.68
2018-05-03T21:12:52.573Z,61.55
2018-05-03T21:15:21.599Z,61.51
2018-05-03T21:17:49.850Z,61.76
2018-05-03T21:20:18.153Z,62.33
2018-05-03T21:22:46.394Z,62.39
2018-05-03T21:25:15.405Z,62.44
2018-05-03T21:27:43.641Z,62.94
2018-05-03T21:30:11.950Z,63.43
2018-05-03T21:32:40.201Z,62.98
2018-05-03T21:35:08.462Z,63.28
2018-05-03T21:37:36.705Z,62.07
2018-05-03T21:40:04.945Z,63.01
2018-05-03T21:42:33.970Z,62.22
2018-05-03T21:45:02.243Z,62.80
2018-05-03T21:47:30.482Z,62.92
2018-05-03T21:49:59.486Z,62.46
2018-05-03T21:52:27.788Z,62.82
2018-05-03T21:54:56.758Z,63.49
2018-05-03T21:57:25.016Z,63.99
2018-05-03T21:59:54.030Z,63.95
2018-05-03T22:02:22.282Z,63.76
2018-05-03T22:04:50.540Z,64.34
2018-05-03T22:07:18.779Z,64.20
2018-05-03T22:09:47.030Z,64.39
2018-05-03T22:12:15.292Z,64.49
2018-05-03T22:14:44.296Z,64.46
2018-05-03T22:17:13.328Z,64.91
2018-05-03T22:19:41.561Z,64.85
2018-05-03T22:22:10.574Z,65.25
2018-05-03T22:24:38.826Z,64.40
2018-05-03T22:27:07.834Z,64.36
2018-05-03T22:29:36.095Z,64.57
2018-05-03T22:32:05.118Z,64.34
2018-05-03T22:34:33.357Z,64.32
2018-05-03T22:37:02.369Z,63.94
2018-05-03T22:39:30.623Z,64.84
2018-05-03T22:41:59.631Z,64.99
2018-05-03T22:44:28.654Z,65.28
2018-05-03T22:46:56.890Z,65.41
2018-05-03T22:49:26.185Z,65.45
2018-05-03T22:51:54.428Z,64.78
2018-05-03T22:54:22.657Z,65.23
2018-05-03T22:56:50.918Z,64.80
2018-05-03T22:59:19.918Z,63.85
2018-05-03T23:01:48.941Z,64.30
2018-05-03T23:04:17.173Z,63.83
2018-05-03T23:06:46.193Z,64.19
2018-05-03T23:09:14.436Z,64.26
2018-05-03T23:11:42.693Z,64.79
2018-05-03T23:14:10.937Z,65.09
2018-05-03T23:16:39.177Z,64.87
2018-05-03T23:19:08.437Z,64.76
2018-05-03T23:21:36.680Z,64.36
2018-05-03T23:24:04.913Z,64.39
2018-05-03T23:26:33.166Z,64.00
2018-05-03T23:29:01.414Z,63.81
2018-05-03T23:31:29.669Z,64.65
2018-05-03T23:33:57.910Z,64.62
2018-05-03T23:36:26.151Z,64.56
2018-05-03T23:38:54.398Z,64.24
2018-05-03T23:41:22.633Z,64.09
2018-05-03T23:43:50.883Z,64.30
2018-05-03T23:46:19.134Z,63.71
2018-05-03T23:48:47.374Z,63.62
2018-05-03T23:51:16.386Z,64.18
2018-05-03T23:53:44.621Z,63.88
2018-05-03T23:56:12.878Z,64.19
2018-05-03T23:58:41.131Z,64.17
